createdAt,value
2022-11-19T00:00:02.298Z,1003.39
2022-11-19T00:01:02.301Z,1003.33
2022-11-19T00:02:09.032Z,1003.34
2022-11-19T00:03:02.269Z,1003.39
2022-11-19T00:04:02.259Z,1003.36
2022-11-19T00:05:02.244Z,1003.34
2022-11-19T00:06:02.260Z,1003.39
2022-11-19T00:07:02.249Z,1003.36
2022-11-19T00:08:02.201Z,1003.38
2022-11-19T00:09:02.216Z,1003.34
2022-11-19T00:10:02.183Z,1003.38
2022-11-19T00:11:05.392Z,1003.35
2022-11-19T00:12:03.176Z,1003.37
2022-11-19T00:13:02.138Z,1003.44
2022-11-19T00:14:02.145Z,1003.41
2022-11-19T00:15:02.132Z,1003.42
2022-11-19T00:16:02.151Z,1003.47
2022-11-19T00:17:02.124Z,1003.45
2022-11-19T00:18:03.054Z,1003.45
2022-11-19T00:19:02.151Z,1003.46
2022-11-19T00:20:02.075Z,1003.51
2022-11-19T00:21:02.078Z,1003.49
2022-11-19T00:22:02.071Z,1003.52
2022-11-19T00:23:02.041Z,1003.52
2022-11-19T00:24:02.026Z,1003.54
2022-11-19T00:25:02.033Z,1003.53
2022-11-19T00:26:02.016Z,1003.54
2022-11-19T00:27:02.027Z,1003.51
2022-11-19T00:28:01.991Z,1003.56
2022-11-19T00:29:01.976Z,1003.52
2022-11-19T00:30:02.355Z,1003.51
2022-11-19T00:31:01.969Z,1003.56
2022-11-19T00:32:01.974Z,1003.55
2022-11-19T00:33:01.937Z,1003.50
2022-11-19T00:34:01.929Z,1003.57
2022-11-19T00:35:01.930Z,1003.57
2022-11-19T00:36:01.930Z,1003.53
2022-11-19T00:37:01.902Z,1003.61
2022-11-19T00:38:01.874Z,1003.59
2022-11-19T00:39:01.891Z,1003.55
2022-11-19T00:40:01.912Z,1003.54
2022-11-19T00:41:01.881Z,1003.55
2022-11-19T00:42:01.841Z,1003.60
2022-11-19T00:43:01.838Z,1003.65
2022-11-19T00:44:01.810Z,1003.59
2022-11-19T00:45:01.838Z,1003.60
2022-11-19T00:46:01.799Z,1003.62
2022-11-19T00:47:01.790Z,1003.65
2022-11-19T00:48:01.760Z,1003.62
2022-11-19T00:49:01.781Z,1003.61
2022-11-19T00:50:01.794Z,1003.58
2022-11-19T00:51:01.730Z,1003.65
2022-11-19T00:52:01.721Z,1003.66
2022-11-19T00:53:01.716Z,1003.65
2022-11-19T00:54:01.694Z,1003.58
2022-11-19T00:55:01.691Z,1003.61
2022-11-19T00:56:01.780Z,1003.68
2022-11-19T00:57:03.638Z,1003.64
2022-11-19T00:58:01.659Z,1003.71
2022-11-19T00:59:01.711Z,1003.65
2022-11-19T01:00:01.625Z,1003.70
2022-11-19T01:01:01.710Z,1003.75
2022-11-19T01:02:01.695Z,1003.71
2022-11-19T01:03:01.605Z,1003.75
2022-11-19T01:04:01.597Z,1003.80
2022-11-19T01:05:01.580Z,1003.74
2022-11-19T01:06:01.937Z,1003.83
2022-11-19T01:07:01.640Z,1003.79
2022-11-19T01:08:01.544Z,1003.85
2022-11-19T01:09:01.543Z,1003.83
2022-11-19T01:10:01.534Z,1003.89
2022-11-19T01:11:01.616Z,1003.87
2022-11-19T01:12:01.538Z,1003.85
2022-11-19T01:13:01.496Z,1003.89
2022-11-19T01:14:01.468Z,1003.94
2022-11-19T01:15:01.496Z,1003.88
2022-11-19T01:16:01.446Z,1003.88
2022-11-19T01:17:01.470Z,1003.88
2022-11-19T01:18:01.435Z,1003.85
2022-11-19T01:19:01.423Z,1003.85
2022-11-19T01:20:01.447Z,1003.86
2022-11-19T01:21:01.420Z,1003.91
2022-11-19T01:22:01.392Z,1003.87
2022-11-19T01:23:01.387Z,1003.91
2022-11-19T01:24:01.378Z,1003.92
2022-11-19T01:25:01.359Z,1003.94
2022-11-19T01:26:01.339Z,1003.98
2022-11-19T01:27:01.334Z,1003.99
2022-11-19T01:28:01.346Z,1004.01
2022-11-19T01:29:01.341Z,1003.98
2022-11-19T01:30:01.314Z,1004.04
2022-11-19T01:31:01.296Z,1003.98
2022-11-19T01:32:01.275Z,1004.01
2022-11-19T01:33:01.275Z,1004.03
2022-11-19T01:34:01.255Z,1004.05
2022-11-19T01:35:01.298Z,1003.98
2022-11-19T01:36:01.221Z,1004.00
2022-11-19T01:37:01.218Z,1004.03
2022-11-19T01:38:01.243Z,1003.97
2022-11-19T01:39:01.228Z,1004.01
2022-11-19T01:40:01.190Z,1003.97
2022-11-19T01:41:01.203Z,1003.97
2022-11-19T01:42:01.185Z,1003.98
2022-11-19T01:43:01.159Z,1004.03
2022-11-19T01:44:01.149Z,1004.00
2022-11-19T01:45:01.187Z,1003.95
2022-11-19T01:46:01.132Z,1003.94
2022-11-19T01:47:02.058Z,1004.04
2022-11-19T01:48:01.093Z,1004.05
2022-11-19T01:49:01.082Z,1004.08
2022-11-19T01:50:01.101Z,1004.08
2022-11-19T01:51:01.095Z,1004.07
2022-11-19T01:52:01.053Z,1004.08
2022-11-19T01:53:01.074Z,1004.08
2022-11-19T01:54:01.018Z,1004.12
2022-11-19T01:55:01.024Z,1004.09
2022-11-19T01:56:01.010Z,1004.12
2022-11-19T01:57:01.014Z,1004.13
2022-11-19T01:58:01.040Z,1004.11
2022-11-19T01:59:01.003Z,1004.07
2022-11-19T02:00:00.994Z,1004.08
2022-11-19T02:01:01.001Z,1004.11
2022-11-19T02:02:00.984Z,1004.10
2022-11-19T02:03:00.936Z,1004.16
2022-11-19T02:04:00.916Z,1004.16
2022-11-19T02:05:00.907Z,1004.16
2022-11-19T02:06:00.894Z,1004.14
2022-11-19T02:07:00.935Z,1004.09
2022-11-19T02:08:00.901Z,1004.16
2022-11-19T02:09:00.867Z,1004.20
2022-11-19T02:10:00.853Z,1004.20
2022-11-19T02:11:00.841Z,1004.23
2022-11-19T02:12:00.839Z,1004.19
2022-11-19T02:13:00.847Z,1004.23
2022-11-19T02:14:00.811Z,1004.20
2022-11-19T02:15:00.807Z,1004.22
2022-11-19T02:16:00.778Z,1004.24
2022-11-19T02:17:00.863Z,1004.21
2022-11-19T02:18:00.944Z,1004.20
2022-11-19T02:19:00.753Z,1004.23
2022-11-19T02:20:00.846Z,1004.27
2022-11-19T02:21:00.816Z,1004.26
2022-11-19T02:22:00.731Z,1004.24
2022-11-19T02:23:00.703Z,1004.28
2022-11-19T02:24:00.709Z,1004.27
2022-11-19T02:25:00.693Z,1004.27
2022-11-19T02:26:00.706Z,1004.29
2022-11-19T02:27:00.674Z,1004.23
2022-11-19T02:28:00.660Z,1004.29
2022-11-19T02:29:00.652Z,1004.33
2022-11-19T02:30:00.664Z,1004.35
2022-11-19T02:31:00.621Z,1004.37
2022-11-19T02:32:00.602Z,1004.31
2022-11-19T02:33:00.586Z,1004.37
2022-11-19T02:34:00.582Z,1004.37
2022-11-19T02:35:00.570Z,1004.38
2022-11-19T02:36:00.593Z,1004.34
2022-11-19T02:37:00.543Z,1004.41
2022-11-19T02:38:00.552Z,1004.37
2022-11-19T02:39:00.527Z,1004.37
2022-11-19T02:40:00.526Z,1004.36
2022-11-19T02:41:00.526Z,1004.39
2022-11-19T02:42:00.497Z,1004.49
2022-11-19T02:43:00.507Z,1004.37
2022-11-19T02:44:00.484Z,1004.39
2022-11-19T02:45:00.467Z,1004.43
2022-11-19T02:46:00.463Z,1004.46
2022-11-19T02:47:00.485Z,1004.43
2022-11-19T02:48:00.467Z,1004.45
2022-11-19T02:49:00.413Z,1004.42
2022-11-19T02:50:00.423Z,1004.47
2022-11-19T02:51:00.395Z,1004.47
2022-11-19T02:52:00.379Z,1004.43
2022-11-19T02:53:00.367Z,1004.52
2022-11-19T02:54:00.400Z,1004.57
2022-11-19T02:55:00.347Z,1004.60
2022-11-19T02:56:00.344Z,1004.60
2022-11-19T02:57:00.310Z,1004.56
2022-11-19T02:58:00.306Z,1004.54
2022-11-19T02:59:00.291Z,1004.59
2022-11-19T03:00:00.288Z,1004.61
2022-11-19T03:01:00.367Z,1004.55
2022-11-19T03:02:00.302Z,1004.54
2022-11-19T03:03:00.260Z,1004.63
2022-11-19T03:04:00.264Z,1004.52
2022-11-19T03:05:00.233Z,1004.56
2022-11-19T03:06:00.248Z,1004.52
2022-11-19T03:07:00.279Z,1004.53
2022-11-19T03:08:00.236Z,1004.55
2022-11-19T03:09:00.202Z,1004.52
2022-11-19T03:10:00.196Z,1004.48
2022-11-19T03:11:00.179Z,1004.50
2022-11-19T03:12:00.213Z,1004.44
2022-11-19T03:13:00.140Z,1004.48
2022-11-19T03:14:00.153Z,1004.48
2022-11-19T03:15:00.157Z,1004.54
2022-11-19T03:16:00.128Z,1004.53
2022-11-19T03:17:00.105Z,1004.51
2022-11-19T03:18:00.126Z,1004.53
2022-11-19T03:19:00.078Z,1004.49
2022-11-19T03:20:00.083Z,1004.53
2022-11-19T03:21:00.135Z,1004.46
2022-11-19T03:22:00.066Z,1004.46
2022-11-19T03:23:00.072Z,1004.50
2022-11-19T03:24:00.038Z,1004.50
2022-11-19T03:25:00.022Z,1004.54
2022-11-19T03:26:00.012Z,1004.43
2022-11-19T03:26:59.997Z,1004.46
2022-11-19T03:28:00.005Z,1004.52
2022-11-19T03:29:00.008Z,1004.51
2022-11-19T03:29:59.970Z,1004.47
2022-11-19T03:30:59.962Z,1004.51
2022-11-19T03:31:59.941Z,1004.52
2022-11-19T03:32:59.925Z,1004.54
2022-11-19T03:33:59.946Z,1004.52
2022-11-19T03:34:59.912Z,1004.47
2022-11-19T03:35:59.907Z,1004.53
2022-11-19T03:36:59.892Z,1004.52
2022-11-19T03:37:59.877Z,1004.47
2022-11-19T03:38:59.918Z,1004.53
2022-11-19T03:39:59.875Z,1004.56
2022-11-19T03:40:59.852Z,1004.55
2022-11-19T03:41:59.837Z,1004.52
2022-11-19T03:42:59.814Z,1004.50
2022-11-19T03:43:59.843Z,1004.53
2022-11-19T03:44:59.792Z,1004.59
2022-11-19T03:45:59.790Z,1004.61
2022-11-19T03:46:59.775Z,1004.69
2022-11-19T03:47:59.767Z,1004.63
2022-11-19T03:48:59.752Z,1004.64
2022-11-19T03:49:59.796Z,1004.67
2022-11-19T03:50:59.733Z,1004.66
2022-11-19T03:51:59.725Z,1004.69
2022-11-19T03:53:04.143Z,1004.70
2022-11-19T03:53:59.709Z,1004.69
2022-11-19T03:54:59.687Z,1004.73
2022-11-19T03:55:59.730Z,1004.73
2022-11-19T03:56:59.671Z,1004.71
2022-11-19T03:57:59.688Z,1004.74
2022-11-19T03:58:59.637Z,1004.72
2022-11-19T03:59:59.652Z,1004.74
2022-11-19T04:00:59.624Z,1004.73
2022-11-19T04:01:59.680Z,1004.73
2022-11-19T04:02:59.630Z,1004.76
2022-11-19T04:04:00.557Z,1004.74
2022-11-19T04:04:59.576Z,1004.76
2022-11-19T04:05:59.572Z,1004.67
2022-11-19T04:06:59.578Z,1004.74
2022-11-19T04:07:59.548Z,1004.75
2022-11-19T04:08:59.577Z,1004.70
2022-11-19T04:09:59.528Z,1004.75
2022-11-19T04:11:34.889Z,1004.70
2022-11-19T04:12:34.869Z,1004.70
2022-11-19T04:13:34.860Z,1004.80
2022-11-19T04:14:34.857Z,1004.78
2022-11-19T04:15:34.840Z,1004.77
2022-11-19T04:16:34.909Z,1004.78
2022-11-19T04:17:34.820Z,1004.74
2022-11-19T04:18:34.800Z,1004.79
2022-11-19T04:19:34.816Z,1004.82
2022-11-19T04:20:34.807Z,1004.77
2022-11-19T04:21:34.776Z,1004.83
2022-11-19T04:22:34.767Z,1004.86
2022-11-19T04:23:34.748Z,1004.84
2022-11-19T04:24:34.732Z,1004.78
2022-11-19T04:25:34.775Z,1004.82
2022-11-19T04:26:34.720Z,1004.81
2022-11-19T04:27:34.729Z,1004.80
2022-11-19T04:28:34.699Z,1004.87
2022-11-19T04:29:34.684Z,1004.83
2022-11-19T04:30:34.684Z,1004.88
2022-11-19T04:31:34.652Z,1004.92
2022-11-19T04:32:34.681Z,1004.86
2022-11-19T04:33:34.639Z,1004.87
2022-11-19T04:34:34.627Z,1004.86
2022-11-19T04:35:34.620Z,1004.90
2022-11-19T04:36:34.597Z,1004.85
2022-11-19T04:37:34.591Z,1004.89
2022-11-19T04:38:34.600Z,1004.92
2022-11-19T04:39:34.577Z,1004.90
2022-11-19T04:40:34.571Z,1004.90
2022-11-19T04:41:34.574Z,1004.94
2022-11-19T04:42:34.570Z,1004.93
2022-11-19T04:43:34.522Z,1004.91
2022-11-19T04:44:34.531Z,1004.89
2022-11-19T04:45:34.510Z,1004.97
2022-11-19T04:46:34.496Z,1004.94
2022-11-19T04:47:34.473Z,1004.99
2022-11-19T04:48:34.493Z,1004.93
2022-11-19T04:49:34.511Z,1005.06
2022-11-19T04:50:34.466Z,1005.00
2022-11-19T04:51:34.435Z,1005.02
2022-11-19T04:52:40.294Z,1005.01
2022-11-19T04:53:35.415Z,1005.07
2022-11-19T04:54:34.393Z,1005.05
2022-11-19T04:55:34.438Z,1005.06
2022-11-19T04:56:34.383Z,1005.07
2022-11-19T04:57:34.365Z,1005.06
2022-11-19T04:58:34.365Z,1005.12
2022-11-19T04:59:35.296Z,1005.11
2022-11-19T05:00:34.349Z,1005.14
2022-11-19T05:01:34.401Z,1005.15
2022-11-19T05:02:34.361Z,1005.22
2022-11-19T05:03:34.307Z,1005.30
2022-11-19T05:04:34.280Z,1005.20
2022-11-19T05:05:34.307Z,1005.29
2022-11-19T05:06:34.265Z,1005.21
2022-11-19T05:07:34.338Z,1005.18
2022-11-19T05:08:34.296Z,1005.12
2022-11-19T05:09:34.252Z,1005.22
2022-11-19T05:10:34.222Z,1005.22
2022-11-19T05:11:34.218Z,1005.21
2022-11-19T05:12:34.221Z,1005.28
2022-11-19T05:13:34.197Z,1005.25
2022-11-19T05:14:34.220Z,1005.28
2022-11-19T05:15:34.226Z,1005.25
2022-11-19T05:16:34.208Z,1005.32
2022-11-19T05:17:34.162Z,1005.32
2022-11-19T05:18:34.137Z,1005.36
2022-11-19T05:19:34.143Z,1005.37
2022-11-19T05:20:34.112Z,1005.37
2022-11-19T05:21:34.098Z,1005.31
2022-11-19T05:22:34.099Z,1005.39
2022-11-19T05:23:34.143Z,1005.32
2022-11-19T05:24:34.098Z,1005.33
2022-11-19T05:25:34.088Z,1005.43
2022-11-19T05:26:34.053Z,1005.30
2022-11-19T05:27:34.039Z,1005.35
2022-11-19T05:28:38.997Z,1005.35
2022-11-19T05:29:35.262Z,1005.38
2022-11-19T05:30:34.000Z,1005.38
2022-11-19T05:31:33.988Z,1005.39
2022-11-19T05:32:33.975Z,1005.38
2022-11-19T05:33:34.647Z,1005.38
2022-11-19T05:34:33.984Z,1005.37
2022-11-19T05:35:33.984Z,1005.38
2022-11-19T05:36:33.934Z,1005.45
2022-11-19T05:37:33.936Z,1005.47
2022-11-19T05:38:33.925Z,1005.47
2022-11-19T05:39:33.909Z,1005.41
2022-11-19T05:40:33.926Z,1005.52
2022-11-19T05:41:33.882Z,1005.47
2022-11-19T05:42:33.871Z,1005.51
2022-11-19T05:43:33.870Z,1005.53
2022-11-19T05:44:33.842Z,1005.52
2022-11-19T05:45:33.844Z,1005.59
2022-11-19T05:46:33.862Z,1005.58
2022-11-19T05:47:33.846Z,1005.55
2022-11-19T05:48:33.813Z,1005.55
2022-11-19T05:49:33.798Z,1005.63
2022-11-19T05:50:33.812Z,1005.63
2022-11-19T05:51:33.767Z,1005.59
2022-11-19T05:52:33.760Z,1005.63
2022-11-19T05:53:33.762Z,1005.60
2022-11-19T05:54:33.776Z,1005.64
2022-11-19T05:55:33.875Z,1005.58
2022-11-19T05:56:33.749Z,1005.58
2022-11-19T05:57:33.714Z,1005.66
2022-11-19T05:58:33.695Z,1005.69
2022-11-19T05:59:33.686Z,1005.74
2022-11-19T06:00:33.738Z,1005.67
2022-11-19T06:01:33.690Z,1005.80
2022-11-19T06:02:33.709Z,1005.81
2022-11-19T06:03:33.637Z,1005.80
2022-11-19T06:04:33.699Z,1005.85
2022-11-19T06:05:38.745Z,1005.81
2022-11-19T06:06:34.615Z,1005.80
2022-11-19T06:07:33.649Z,1005.78
2022-11-19T06:08:33.618Z,1005.81
2022-11-19T06:09:34.380Z,1005.89
2022-11-19T06:10:33.556Z,1005.86
2022-11-19T06:11:33.545Z,1005.91
2022-11-19T06:12:33.527Z,1005.90
2022-11-19T06:13:33.535Z,1006.03
2022-11-19T06:14:33.539Z,1005.98
2022-11-19T06:15:33.507Z,1005.99
2022-11-19T06:16:33.489Z,1006.06
2022-11-19T06:17:33.499Z,1006.04
2022-11-19T06:18:33.534Z,1006.09
2022-11-19T06:19:33.478Z,1006.04
2022-11-19T06:20:33.479Z,1006.09
2022-11-19T06:21:33.531Z,1006.06
2022-11-19T06:22:33.471Z,1006.03
2022-11-19T06:23:33.490Z,1006.04
2022-11-19T06:24:33.761Z,1006.00
2022-11-19T06:25:33.397Z,1006.10
2022-11-19T06:26:33.699Z,1006.01
2022-11-19T06:27:34.842Z,1006.08
2022-11-19T06:28:34.303Z,1006.06
2022-11-19T06:29:34.799Z,1006.05
2022-11-19T06:30:33.379Z,1006.08
2022-11-19T06:31:33.462Z,1006.05
2022-11-19T06:32:33.333Z,1006.06
2022-11-19T06:33:33.301Z,1006.05
2022-11-19T06:34:34.243Z,1006.08
2022-11-19T06:35:33.290Z,1006.07
2022-11-19T06:36:39.048Z,1006.10
2022-11-19T06:37:34.287Z,1006.15
2022-11-19T06:38:33.306Z,1006.16
2022-11-19T06:39:33.241Z,1006.10
2022-11-19T06:40:33.245Z,1006.19
2022-11-19T06:41:33.231Z,1006.13
2022-11-19T06:42:33.224Z,1006.25
2022-11-19T06:43:33.243Z,1006.27
2022-11-19T06:44:33.177Z,1006.19
2022-11-19T06:45:34.122Z,1006.31
2022-11-19T06:46:34.143Z,1006.28
2022-11-19T06:47:33.193Z,1006.32
2022-11-19T06:48:33.181Z,1006.30
2022-11-19T06:49:33.264Z,1006.27
2022-11-19T06:50:34.046Z,1006.33
2022-11-19T06:51:33.194Z,1006.37
2022-11-19T06:52:34.541Z,1006.39
2022-11-19T06:53:33.137Z,1006.40
2022-11-19T06:54:36.730Z,1006.40
2022-11-19T06:55:34.061Z,1006.40
2022-11-19T06:56:33.056Z,1006.47
2022-11-19T06:57:33.849Z,1006.46
2022-11-19T06:58:33.258Z,1006.39
2022-11-19T06:59:33.143Z,1006.41
2022-11-19T07:00:33.010Z,1006.48
2022-11-19T07:01:33.054Z,1006.47
2022-11-19T07:02:33.347Z,1006.51
2022-11-19T07:03:34.188Z,1006.57
2022-11-19T07:04:32.959Z,1006.55
2022-11-19T07:05:32.973Z,1006.56
2022-11-19T07:06:32.951Z,1006.58
2022-11-19T07:07:32.968Z,1006.61
2022-11-19T07:08:33.360Z,1006.60
2022-11-19T07:09:32.904Z,1006.62
2022-11-19T07:10:32.899Z,1006.59
2022-11-19T07:11:32.911Z,1006.58
2022-11-19T07:12:32.877Z,1006.65
2022-11-19T07:13:32.884Z,1006.63
2022-11-19T07:14:32.879Z,1006.58
2022-11-19T07:15:33.033Z,1006.73
2022-11-19T07:16:33.100Z,1006.67
2022-11-19T07:17:32.839Z,1006.70
2022-11-19T07:18:32.843Z,1006.74
2022-11-19T07:19:33.419Z,1006.76
2022-11-19T07:20:32.794Z,1006.77
2022-11-19T07:21:32.780Z,1006.79
2022-11-19T07:22:34.212Z,1006.80
2022-11-19T07:23:32.764Z,1006.74
2022-11-19T07:24:32.733Z,1006.79
2022-11-19T07:25:32.765Z,1006.78
2022-11-19T07:26:32.720Z,1006.78
2022-11-19T07:27:32.711Z,1006.78
2022-11-19T07:28:32.695Z,1006.79
2022-11-19T07:29:32.770Z,1006.78
2022-11-19T07:30:32.854Z,1006.81
2022-11-19T07:31:32.706Z,1006.78
2022-11-19T07:32:32.662Z,1006.81
2022-11-19T07:33:33.267Z,1006.87
2022-11-19T07:34:32.638Z,1006.81
2022-11-19T07:35:33.202Z,1006.83
2022-11-19T07:36:32.862Z,1006.86
2022-11-19T07:37:32.818Z,1006.84
2022-11-19T07:38:36.770Z,1006.79
2022-11-19T07:39:32.577Z,1006.84
2022-11-19T07:40:32.622Z,1006.83
2022-11-19T07:41:32.558Z,1006.83
2022-11-19T07:42:32.557Z,1006.88
2022-11-19T07:43:32.568Z,1006.87
2022-11-19T07:44:32.702Z,1006.93
2022-11-19T07:45:32.497Z,1006.89
2022-11-19T07:46:32.503Z,1006.91
2022-11-19T07:47:32.494Z,1006.87
2022-11-19T07:48:32.490Z,1006.94
2022-11-19T07:49:32.498Z,1006.96
2022-11-19T07:50:32.913Z,1007.00
2022-11-19T07:51:33.890Z,1006.95
2022-11-19T07:52:32.423Z,1007.01
2022-11-19T07:53:32.418Z,1006.99
2022-11-19T07:54:32.423Z,1006.98
2022-11-19T07:55:32.438Z,1007.05
2022-11-19T07:56:32.396Z,1007.01
2022-11-19T07:57:32.380Z,1007.07
2022-11-19T07:58:32.367Z,1007.05
2022-11-19T07:59:32.370Z,1006.99
2022-11-19T08:00:32.343Z,1007.07
2022-11-19T08:01:32.381Z,1007.05
2022-11-19T08:02:32.339Z,1006.98
2022-11-19T08:03:32.308Z,1007.06
2022-11-19T08:04:32.297Z,1007.09
2022-11-19T08:05:32.316Z,1007.13
2022-11-19T08:06:32.311Z,1007.21
2022-11-19T08:07:32.437Z,1007.18
2022-11-19T08:08:32.246Z,1007.19
2022-11-19T08:09:32.306Z,1007.23
2022-11-19T08:10:32.240Z,1007.29
2022-11-19T08:11:32.250Z,1007.27
2022-11-19T08:12:32.383Z,1007.31
2022-11-19T08:13:32.278Z,1007.21
2022-11-19T08:14:32.204Z,1007.27
2022-11-19T08:15:32.170Z,1007.26
2022-11-19T08:16:32.385Z,1007.30
2022-11-19T08:17:32.154Z,1007.30
2022-11-19T08:18:32.413Z,1007.32
2022-11-19T08:19:32.136Z,1007.36
2022-11-19T08:20:32.277Z,1007.37
2022-11-19T08:21:32.114Z,1007.37
2022-11-19T08:22:32.294Z,1007.39
2022-11-19T08:23:32.136Z,1007.42
2022-11-19T08:24:32.090Z,1007.45
2022-11-19T08:25:32.097Z,1007.42
2022-11-19T08:26:32.080Z,1007.40
2022-11-19T08:27:32.092Z,1007.40
2022-11-19T08:28:32.100Z,1007.39
2022-11-19T08:29:32.024Z,1007.42
2022-11-19T08:30:32.034Z,1007.41
2022-11-19T08:31:32.268Z,1007.44
2022-11-19T08:32:31.987Z,1007.39
2022-11-19T08:33:32.025Z,1007.48
2022-11-19T08:34:31.970Z,1007.46
2022-11-19T08:35:31.974Z,1007.48
2022-11-19T08:36:31.957Z,1007.51
2022-11-19T08:37:31.936Z,1007.46
2022-11-19T08:38:37.246Z,1007.48
2022-11-19T08:39:32.941Z,1007.50
2022-11-19T08:40:31.929Z,1007.47
2022-11-19T08:41:31.884Z,1007.40
2022-11-19T08:42:31.875Z,1007.50
2022-11-19T08:43:32.829Z,1007.46
2022-11-19T08:44:31.896Z,1007.52
2022-11-19T08:45:32.843Z,1007.49
2022-11-19T08:46:32.023Z,1007.52
2022-11-19T08:47:31.820Z,1007.54
2022-11-19T08:48:31.841Z,1007.54
2022-11-19T08:49:31.792Z,1007.54
2022-11-19T08:50:31.789Z,1007.52
2022-11-19T08:51:31.805Z,1007.60
2022-11-19T08:52:31.769Z,1007.53
2022-11-19T08:53:31.756Z,1007.57
2022-11-19T08:54:31.744Z,1007.57
2022-11-19T08:55:31.731Z,1007.67
2022-11-19T08:56:32.000Z,1007.54
2022-11-19T08:57:31.715Z,1007.62
2022-11-19T08:58:31.722Z,1007.63
2022-11-19T08:59:31.675Z,1007.62
2022-11-19T09:00:31.859Z,1007.60
2022-11-19T09:01:31.708Z,1007.68
2022-11-19T09:02:31.695Z,1007.65
2022-11-19T09:03:31.664Z,1007.64
2022-11-19T09:04:33.083Z,1007.72
2022-11-19T09:05:31.618Z,1007.70
2022-11-19T09:06:31.671Z,1007.67
2022-11-19T09:07:31.640Z,1007.80
2022-11-19T09:08:31.792Z,1007.76
2022-11-19T09:09:31.567Z,1007.78
2022-11-19T09:10:31.578Z,1007.76
2022-11-19T09:11:31.833Z,1007.78
2022-11-19T09:12:31.564Z,1007.79
2022-11-19T09:13:31.544Z,1007.86
2022-11-19T09:14:31.533Z,1007.82
2022-11-19T09:15:31.511Z,1007.82
2022-11-19T09:16:31.518Z,1007.83
2022-11-19T09:17:31.537Z,1007.86
2022-11-19T09:18:32.329Z,1007.86
2022-11-19T09:19:31.461Z,1007.89
2022-11-19T09:20:32.925Z,1007.93
2022-11-19T09:21:31.440Z,1007.91
2022-11-19T09:22:31.439Z,1007.95
2022-11-19T09:23:31.424Z,1007.93
2022-11-19T09:24:31.437Z,1007.93
2022-11-19T09:25:31.412Z,1007.92
2022-11-19T09:26:31.424Z,1007.94
2022-11-19T09:27:31.383Z,1007.97
2022-11-19T09:28:31.382Z,1007.95
2022-11-19T09:29:31.411Z,1007.94
2022-11-19T09:30:31.332Z,1007.93
2022-11-19T09:31:32.273Z,1007.91
2022-11-19T09:32:31.335Z,1007.92
2022-11-19T09:33:31.331Z,1007.89
2022-11-19T09:34:31.422Z,1007.91
2022-11-19T09:35:31.294Z,1007.94
2022-11-19T09:36:31.426Z,1007.95
2022-11-19T09:37:31.282Z,1007.92
2022-11-19T09:38:31.259Z,1007.95
2022-11-19T09:39:31.242Z,1007.92
2022-11-19T09:40:31.431Z,1007.99
2022-11-19T09:41:31.214Z,1008.06
2022-11-19T09:42:31.223Z,1008.03
2022-11-19T09:43:31.202Z,1008.04
2022-11-19T09:44:31.175Z,1008.01
2022-11-19T09:45:31.229Z,1008.02
2022-11-19T09:46:31.162Z,1008.06
2022-11-19T09:47:31.194Z,1008.07
2022-11-19T09:48:31.215Z,1008.02
2022-11-19T09:49:31.144Z,1008.11
2022-11-19T09:50:31.429Z,1008.10
2022-11-19T09:51:31.110Z,1008.20
2022-11-19T09:52:31.085Z,1008.15
2022-11-19T09:53:31.084Z,1008.14
2022-11-19T09:54:32.025Z,1008.16
2022-11-19T09:55:31.053Z,1008.22
2022-11-19T09:56:31.067Z,1008.16
2022-11-19T09:57:31.056Z,1008.18
2022-11-19T09:58:31.017Z,1008.19
2022-11-19T09:59:31.005Z,1008.20
2022-11-19T10:00:30.996Z,1008.18
2022-11-19T10:01:31.113Z,1008.16
2022-11-19T10:02:31.954Z,1008.26
2022-11-19T10:03:33.719Z,1008.28
2022-11-19T10:04:31.002Z,1008.28
2022-11-19T10:05:30.947Z,1008.27
2022-11-19T10:06:30.968Z,1008.27
2022-11-19T10:07:30.983Z,1008.33
2022-11-19T10:08:30.917Z,1008.29
2022-11-19T10:09:30.925Z,1008.24
2022-11-19T10:10:31.432Z,1008.28
2022-11-19T10:11:30.898Z,1008.31
2022-11-19T10:12:30.869Z,1008.34
2022-11-19T10:13:30.850Z,1008.35
2022-11-19T10:14:30.839Z,1008.36
2022-11-19T10:15:36.062Z,1008.40
2022-11-19T10:16:31.831Z,1008.45
2022-11-19T10:17:30.800Z,1008.33
2022-11-19T10:18:30.789Z,1008.42
2022-11-19T10:19:30.837Z,1008.39
2022-11-19T10:20:30.785Z,1008.43
2022-11-19T10:21:30.784Z,1008.42
2022-11-19T10:22:30.765Z,1008.41
2022-11-19T10:23:30.781Z,1008.45
2022-11-19T10:24:30.730Z,1008.40
2022-11-19T10:25:30.715Z,1008.48
2022-11-19T10:26:30.714Z,1008.45
2022-11-19T10:27:30.689Z,1008.52
2022-11-19T10:28:30.696Z,1008.49
2022-11-19T10:29:30.715Z,1008.50
2022-11-19T10:30:30.662Z,1008.57
2022-11-19T10:31:30.710Z,1008.52
2022-11-19T10:32:30.686Z,1008.57
2022-11-19T10:33:30.638Z,1008.56
2022-11-19T10:34:30.632Z,1008.57
2022-11-19T10:35:30.603Z,1008.54
2022-11-19T10:36:30.597Z,1008.57
2022-11-19T10:37:30.616Z,1008.54
2022-11-19T10:38:30.650Z,1008.56
2022-11-19T10:39:30.629Z,1008.63
2022-11-19T10:40:30.589Z,1008.62
2022-11-19T10:41:30.543Z,1008.60
2022-11-19T10:42:31.498Z,1008.62
2022-11-19T10:43:30.506Z,1008.60
2022-11-19T10:44:30.548Z,1008.56
2022-11-19T10:45:30.495Z,1008.55
2022-11-19T10:46:30.487Z,1008.53
2022-11-19T10:47:30.487Z,1008.59
2022-11-19T10:48:30.505Z,1008.52
2022-11-19T10:49:30.455Z,1008.50
2022-11-19T10:50:30.472Z,1008.45
2022-11-19T10:51:30.433Z,1008.45
2022-11-19T10:52:30.418Z,1008.51
2022-11-19T10:53:30.448Z,1008.49
2022-11-19T10:54:30.386Z,1008.47
2022-11-19T10:55:30.375Z,1008.46
2022-11-19T10:56:30.649Z,1008.46
2022-11-19T10:57:30.363Z,1008.42
2022-11-19T10:58:31.210Z,1008.48
2022-11-19T10:59:30.328Z,1008.43
2022-11-19T11:00:30.341Z,1008.45
2022-11-19T11:01:30.362Z,1008.42
2022-11-19T11:02:30.344Z,1008.42
2022-11-19T11:03:30.310Z,1008.47
2022-11-19T11:04:30.699Z,1008.43
2022-11-19T11:05:30.269Z,1008.39
2022-11-19T11:06:30.299Z,1008.38
2022-11-19T11:07:30.269Z,1008.39
2022-11-19T11:08:30.241Z,1008.39
2022-11-19T11:09:30.227Z,1008.35
2022-11-19T11:10:30.221Z,1008.31
2022-11-19T11:11:30.215Z,1008.39
2022-11-19T11:12:30.437Z,1008.32
2022-11-19T11:13:30.202Z,1008.36
2022-11-19T11:14:30.185Z,1008.34
2022-11-19T11:15:30.156Z,1008.38
2022-11-19T11:16:35.140Z,1008.31
2022-11-19T11:17:31.162Z,1008.37
2022-11-19T11:18:31.582Z,1008.34
2022-11-19T11:19:30.516Z,1008.30
2022-11-19T11:20:31.509Z,1008.37
2022-11-19T11:21:30.101Z,1008.34
2022-11-19T11:22:31.511Z,1008.38
2022-11-19T11:23:30.102Z,1008.30
2022-11-19T11:24:30.153Z,1008.33
2022-11-19T11:25:30.051Z,1008.34
2022-11-19T11:26:30.042Z,1008.36
2022-11-19T11:27:30.166Z,1008.38
2022-11-19T11:28:30.129Z,1008.31
2022-11-19T11:29:30.017Z,1008.32
2022-11-19T11:30:31.447Z,1008.34
2022-11-19T11:31:30.025Z,1008.30
2022-11-19T11:32:30.114Z,1008.33
2022-11-19T11:33:30.909Z,1008.34
2022-11-19T11:34:30.003Z,1008.34
2022-11-19T11:35:29.940Z,1008.41
2022-11-19T11:36:29.937Z,1008.34
2022-11-19T11:37:30.035Z,1008.32
2022-11-19T11:38:29.911Z,1008.38
2022-11-19T11:39:30.277Z,1008.37
2022-11-19T11:40:30.127Z,1008.35
2022-11-19T11:42:04.420Z,1008.34
2022-11-19T11:42:30.896Z,1008.34
2022-11-19T11:43:29.845Z,1008.36
2022-11-19T11:44:31.319Z,1008.38
2022-11-19T11:45:29.887Z,1008.37
2022-11-19T11:46:29.855Z,1008.36
2022-11-19T11:47:29.860Z,1008.37
2022-11-19T11:48:31.271Z,1008.34
2022-11-19T11:49:29.822Z,1008.44
2022-11-19T11:50:30.057Z,1008.35
2022-11-19T11:51:29.816Z,1008.36
2022-11-19T11:52:29.761Z,1008.33
2022-11-19T11:53:29.771Z,1008.37
2022-11-19T11:54:30.690Z,1008.42
2022-11-19T11:55:30.122Z,1008.40
2022-11-19T11:56:29.757Z,1008.32
2022-11-19T11:57:29.758Z,1008.31
2022-11-19T11:58:29.693Z,1008.28
2022-11-19T11:59:29.691Z,1008.32
2022-11-19T12:00:30.009Z,1008.26
2022-11-19T12:01:29.663Z,1008.34
2022-11-19T12:02:30.757Z,1008.23
2022-11-19T12:03:29.649Z,1008.29
2022-11-19T12:04:29.675Z,1008.25
2022-11-19T12:05:29.618Z,1008.31